Time,TemperatureF,DewpointF,PressureIn,WindDirection,WindDirectionDegrees,WindSpeedMPH,WindSpeedGustMPH,Humidity,HourlyPrecipIn,Conditions,Clouds,dailyrainin,SolarRadiationWatts/m^2,SoftwareType,DateUTC
2014-09-23 00:04:00,57.9,43.2,30.01,SW,227,3.0,6.0,58,0.00,,,0.00,0.0,meteohub,2014-09-23 07:04:00,
2014-09-23 00:09:00,57.7,43.5,30.00,SW,227,0.0,6.0,59,0.00,,,0.00,0.0,meteohub,2014-09-23 07:09:00,
2014-09-23 00:14:00,57.0,42.8,30.00,SW,227,5.0,6.0,59,0.00,,,0.00,0.0,meteohub,2014-09-23 07:14:00,
2014-09-23 00:19:00,57.4,43.7,30.00,SW,227,8.0,8.0,60,0.00,,,0.00,0.0,meteohub,2014-09-23 07:19:00,
2014-09-23 00:24:00,57.6,43.7,30.00,SW,227,6.0,8.0,60,0.00,,,0.00,0.0,meteohub,2014-09-23 07:24:00,
2014-09-23 00:29:00,57.6,43.3,30.00,SW,227,3.0,9.0,59,0.00,,,0.00,0.0,meteohub,2014-09-23 07:29:00,
2014-09-23 00:34:00,57.4,43.2,29.99,SW,227,5.0,9.0,59,0.00,,,0.00,0.0,meteohub,2014-09-23 07:34:00,
2014-09-23 00:39:00,57.4,43.2,30.00,SW,227,3.0,8.0,59,0.00,,,0.00,0.0,meteohub,2014-09-23 07:39:00,
2014-09-23 00:44:00,57.4,43.7,30.00,SW,227,3.0,8.0,60,0.00,,,0.00,0.0,meteohub,2014-09-23 07:44:00,
2014-09-23 00:49:00,57.4,43.7,30.00,SW,227,5.0,8.0,60,0.00,,,0.00,0.0,meteohub,2014-09-23 07:49:00,
2014-09-23 00:54:00,57.4,43.7,30.00,SW,227,8.0,8.0,60,0.00,,,0.00,0.0,meteohub,2014-09-23 07:54:00,
2014-09-23 00:59:00,57.4,43.7,30.00,SW,227,5.0,8.0,60,0.00,,,0.00,0.0,meteohub,2014-09-23 07:59:00,
2014-09-23 01:04:00,57.2,43.5,30.00,SW,227,6.0,8.0,60,0.00,,,0.00,0.0,meteohub,2014-09-23 08:04:00,
2014-09-23 01:09:00,57.2,43.5,30.00,SW,227,6.0,8.0,60,0.00,,,0.00,0.0,meteohub,2014-09-23 08:09:00,
2014-09-23 01:14:00,57.4,43.7,30.00,SW,227,5.0,8.0,60,0.00,,,0.00,0.0,meteohub,2014-09-23 08:14:00,
2014-09-23 01:19:00,57.4,43.7,30.00,SW,227,0.0,8.0,60,0.00,,,0.00,0.0,meteohub,2014-09-23 08:19:00,
2014-09-23 01:24:00,56.8,43.2,30.00,SW,227,0.0,8.0,60,0.00,,,0.00,0.0,meteohub,2014-09-23 08:24:00,
2014-09-23 01:30:00,56.5,43.2,30.00,SW,227,0.0,8.0,61,0.00,,,0.00,0.0,meteohub,2014-09-23 08:30:00,
2014-09-23 01:35:00,55.9,43.2,30.00,SW,227,0.0,8.0,62,0.00,,,0.00,0.0,meteohub,2014-09-23 08:35:00,
2014-09-23 01:40:00,55.8,42.4,30.00,SW,227,0.0,6.0,61,0.00,,,0.00,0.0,meteohub,2014-09-23 08:40:00,
2014-09-23 01:45:00,55.8,43.3,30.00,SW,227,5.0,5.0,63,0.00,,,0.00,0.0,meteohub,2014-09-23 08:45:00,
2014-09-23 01:50:00,55.6,43.2,30.00,SW,227,3.0,6.0,63,0.00,,,0.00,0.0,meteohub,2014-09-23 08:50:00,
2014-09-23 01:55:00,55.2,42.8,30.00,SW,227,3.0,6.0,63,0.00,,,0.00,0.0,meteohub,2014-09-23 08:55:00,
2014-09-23 02:00:00,55.0,42.6,30.00,SW,227,0.0,8.0,63,0.00,,,0.00,0.0,meteohub,2014-09-23 09:00:00,
2014-09-23 02:05:00,55.0,43.2,30.00,SW,227,5.0,8.0,64,0.00,,,0.00,0.0,meteohub,2014-09-23 09:05:00,
2014-09-23 02:10:00,55.2,43.3,30.00,SW,227,5.0,8.0,64,0.00,,,0.00,0.0,meteohub,2014-09-23 09:10:00,
2014-09-23 02:15:00,55.0,43.2,30.00,SW,227,0.0,8.0,64,0.00,,,0.00,0.0,meteohub,2014-09-23 09:15:00,
2014-09-23 02:20:00,54.9,43.0,30.00,SW,227,0.0,8.0,64,0.00,,,0.00,0.0,meteohub,2014-09-23 09:20:00,
2014-09-23 02:25:00,54.7,43.2,30.00,SW,227,0.0,6.0,65,0.00,,,0.00,0.0,meteohub,2014-09-23 09:25:00,
2014-09-23 02:30:00,54.7,42.8,29.99,SW,227,0.0,6.0,64,0.00,,,0.00,0.0,meteohub,2014-09-23 09:30:00,
2014-09-23 02:36:00,54.1,41.9,30.00,SW,227,3.0,6.0,63,0.00,,,0.00,0.0,meteohub,2014-09-23 09:36:00,
2014-09-23 02:41:00,53.8,42.3,29.99,SW,227,0.0,5.0,65,0.00,,,0.00,0.0,meteohub,2014-09-23 09:41:00,
2014-09-23 02:46:00,53.8,42.6,29.99,SW,227,0.0,6.0,66,0.00,,,0.00,0.0,meteohub,2014-09-23 09:46:00,
2014-09-23 02:51:00,53.8,42.6,30.00,SW,227,0.0,6.0,66,0.00,,,0.00,0.0,meteohub,2014-09-23 09:51:00,
2014-09-23 02:56:00,54.0,42.8,29.99,SW,227,0.0,8.0,66,0.00,,,0.00,0.0,meteohub,2014-09-23 09:56:00,
2014-09-23 03:01:00,54.0,42.8,29.99,SW,227,5.0,8.0,66,0.00,,,0.00,0.0,meteohub,2014-09-23 10:01:00,
2014-09-23 03:06:00,54.0,43.3,29.99,SW,227,5.0,8.0,67,0.00,,,0.00,0.0,meteohub,2014-09-23 10:06:00,
2014-09-23 03:11:00,54.5,43.3,29.99,SW,227,3.0,8.0,66,0.00,,,0.00,0.0,meteohub,2014-09-23 10:11:00,
2014-09-23 03:16:00,54.9,43.3,29.99,SW,227,3.0,8.0,65,0.00,,,0.00,0.0,meteohub,2014-09-23 10:16:00,
2014-09-23 03:21:00,55.0,43.5,29.99,SW,227,0.0,9.0,65,0.00,,,0.00,0.0,meteohub,2014-09-23 10:21:00,
2014-09-23 03:26:00,54.7,43.2,29.99,SW,227,3.0,9.0,65,0.00,,,0.00,0.0,meteohub,2014-09-23 10:26:00,
2014-09-23 03:31:00,54.7,42.8,29.99,SW,227,6.0,9.0,64,0.00,,,0.00,0.0,meteohub,2014-09-23 10:31:00,
2014-09-23 03:36:00,54.9,43.7,29.99,SW,227,8.0,9.0,66,0.00,,,0.00,0.0,meteohub,2014-09-23 10:36:00,
2014-09-23 03:41:00,54.9,43.3,29.99,SW,227,5.0,9.0,65,0.00,,,0.00,0.0,meteohub,2014-09-23 10:41:00,
2014-09-23 03:45:00,54.9,43.3,29.99,SW,227,3.0,9.0,65,0.00,,,0.00,0.0,meteohub,2014-09-23 10:45:00,
2014-09-23 03:50:00,54.5,43.0,29.99,SW,227,3.0,9.0,65,0.00,,,0.00,0.0,meteohub,2014-09-23 10:50:00,
2014-09-23 03:55:00,54.1,42.6,29.99,SW,227,3.0,6.0,65,0.00,,,0.00,0.0,meteohub,2014-09-23 10:55:00,
2014-09-23 04:00:00,54.1,42.6,29.99,SW,227,3.0,6.0,65,0.00,,,0.00,0.0,meteohub,2014-09-23 11:00:00,
2014-09-23 04:05:00,54.3,42.8,29.99,SW,227,5.0,6.0,65,0.00,,,0.00,0.0,meteohub,2014-09-23 11:05:00,
2014-09-23 04:10:00,54.9,42.4,29.98,SW,227,0.0,8.0,63,0.00,,,0.00,0.0,meteohub,2014-09-23 11:10:00,
2014-09-23 04:15:00,54.9,42.1,29.98,SW,227,0.0,8.0,62,0.00,,,0.00,0.0,meteohub,2014-09-23 11:15:00,
2014-09-23 04:20:00,54.3,41.5,29.98,SW,227,0.0,8.0,62,0.00,,,0.00,0.0,meteohub,2014-09-23 11:20:00,
2014-09-23 04:25:00,54.0,41.2,29.99,SW,227,5.0,5.0,62,0.00,,,0.00,0.0,meteohub,2014-09-23 11:25:00,
2014-09-23 04:30:00,54.3,41.5,29.99,SW,227,6.0,6.0,62,0.00,,,0.00,0.0,meteohub,2014-09-23 11:30:00,
2014-09-23 04:35:00,54.3,42.1,29.99,SW,227,0.0,8.0,63,0.00,,,0.00,0.0,meteohub,2014-09-23 11:35:00,
2014-09-23 04:40:00,54.1,41.9,29.99,SW,227,0.0,8.0,63,0.00,,,0.00,0.0,meteohub,2014-09-23 11:40:00,
2014-09-23 04:45:00,54.0,41.7,29.98,SW,227,3.0,8.0,63,0.00,,,0.00,0.0,meteohub,2014-09-23 11:45:00,
2014-09-23 04:50:00,53.8,41.5,29.98,SW,227,5.0,8.0,63,0.00,,,0.00,0.0,meteohub,2014-09-23 11:50:00,
2014-09-23 04:55:00,54.0,41.7,29.98,SW,227,0.0,8.0,63,0.00,,,0.00,0.0,meteohub,2014-09-23 11:55:00,
2014-09-23 05:00:00,54.1,41.4,29.99,SW,227,0.0,8.0,62,0.00,,,0.00,0.0,meteohub,2014-09-23 12:00:00,
2014-09-23 05:05:00,54.1,41.4,29.99,SW,227,5.0,8.0,62,0.00,,,0.00,0.0,meteohub,2014-09-23 12:05:00,
2014-09-23 05:10:00,54.7,42.3,29.99,SW,227,3.0,8.0,63,0.00,,,0.00,0.0,meteohub,2014-09-23 12:10:00,
2014-09-23 05:13:00,55.0,42.3,29.99,SW,227,3.0,8.0,62,0.00,,,0.00,0.0,meteohub,2014-09-23 12:13:00,
2014-09-23 05:18:00,54.7,41.9,29.99,SW,227,0.0,8.0,62,0.00,,,0.00,0.0,meteohub,2014-09-23 12:18:00,
2014-09-23 05:23:00,55.0,42.3,29.99,SW,227,0.0,6.0,62,0.00,,,0.00,0.0,meteohub,2014-09-23 12:23:00,
2014-09-23 05:28:00,53.8,41.5,29.99,SW,227,0.0,6.0,63,0.00,,,0.00,0.0,meteohub,2014-09-23 12:28:00,
2014-09-23 05:33:00,52.9,41.9,29.99,SW,227,0.0,6.0,66,0.00,,,0.00,0.0,meteohub,2014-09-23 12:33:00,
2014-09-23 05:38:00,53.2,42.3,29.99,SW,227,0.0,8.0,66,0.00,,,0.00,0.0,meteohub,2014-09-23 12:38:00,
2014-09-23 05:43:00,52.7,41.7,29.99,SW,227,3.0,8.0,66,0.00,,,0.00,0.0,meteohub,2014-09-23 12:43:00,
2014-09-23 05:48:00,52.9,42.3,29.99,SW,227,0.0,8.0,67,0.00,,,0.00,0.0,meteohub,2014-09-23 12:48:00,
2014-09-23 05:53:00,53.2,42.3,29.99,SW,227,0.0,6.0,66,0.00,,,0.00,0.0,meteohub,2014-09-23 12:53:00,
2014-09-23 05:58:00,53.1,41.5,29.99,SW,227,0.0,6.0,65,0.00,,,0.00,0.0,meteohub,2014-09-23 12:58:00,
2014-09-23 06:03:00,53.2,41.7,29.99,SW,227,0.0,6.0,65,0.00,,,0.00,0.0,meteohub,2014-09-23 13:03:00,
2014-09-23 06:08:00,53.4,41.9,30.00,SW,227,0.0,6.0,65,0.00,,,0.00,0.0,meteohub,2014-09-23 13:08:00,
2014-09-23 06:13:00,53.2,41.0,30.00,SW,227,0.0,8.0,63,0.00,,,0.00,0.0,meteohub,2014-09-23 13:13:00,
2014-09-23 06:18:00,52.7,41.2,30.00,SW,227,0.0,8.0,65,0.00,,,0.00,0.0,meteohub,2014-09-23 13:18:00,
2014-09-23 06:23:00,52.2,41.2,30.00,SW,227,0.0,5.0,66,0.00,,,0.00,0.0,meteohub,2014-09-23 13:23:00,
2014-09-23 06:28:00,51.4,40.5,30.00,SW,227,5.0,5.0,66,0.00,,,0.00,0.0,meteohub,2014-09-23 13:28:00,
2014-09-23 06:33:00,50.7,40.1,30.00,SW,227,0.0,3.0,67,0.00,,,0.00,0.0,meteohub,2014-09-23 13:33:00,
2014-09-23 06:38:00,50.7,40.5,30.00,SW,227,3.0,5.0,68,0.00,,,0.00,0.0,meteohub,2014-09-23 13:38:00,
2014-09-23 06:43:00,51.4,40.5,30.01,SW,227,6.0,8.0,66,0.00,,,0.00,0.0,meteohub,2014-09-23 13:43:00,
2014-09-23 06:48:00,52.3,40.1,30.01,SW,227,0.0,8.0,63,0.00,,,0.00,5.0,meteohub,2014-09-23 13:48:00,
2014-09-23 06:54:00,52.3,38.8,30.00,SW,227,0.0,8.0,60,0.00,,,0.00,9.0,meteohub,2014-09-23 13:54:00,
2014-09-23 06:59:00,52.9,38.5,30.01,SW,227,0.0,8.0,58,0.00,,,0.00,19.0,meteohub,2014-09-23 13:59:00,
2014-09-23 07:04:00,52.3,38.5,30.01,SW,227,3.0,3.0,59,0.00,,,0.00,28.0,meteohub,2014-09-23 14:04:00,
2014-09-23 07:09:00,52.3,38.5,30.01,SW,227,0.0,3.0,59,0.00,,,0.00,30.0,meteohub,2014-09-23 14:09:00,
2014-09-23 07:14:00,52.7,37.9,30.01,SW,227,0.0,3.0,57,0.00,,,0.00,30.0,meteohub,2014-09-23 14:14:00,
2014-09-23 07:19:00,53.6,37.8,30.01,SW,227,0.0,8.0,55,0.00,,,0.00,28.0,meteohub,2014-09-23 14:19:00,
2014-09-23 07:24:00,53.8,37.9,30.01,SW,227,5.0,8.0,55,0.00,,,0.00,44.0,meteohub,2014-09-23 14:24:00,
2014-09-23 07:29:00,53.4,39.0,30.02,SW,227,0.0,8.0,58,0.00,,,0.00,46.0,meteohub,2014-09-23 14:29:00,
2014-09-23 07:32:00,53.8,40.6,30.02,SW,227,0.0,5.0,61,0.00,,,0.00,42.0,meteohub,2014-09-23 14:32:00,
2014-09-23 07:37:00,54.1,41.4,30.01,SW,227,0.0,5.0,62,0.00,,,0.00,72.0,meteohub,2014-09-23 14:37:00,
2014-09-23 07:42:00,55.2,42.1,30.01,SW,227,0.0,5.0,61,0.00,,,0.00,40.0,meteohub,2014-09-23 14:42:00,
2014-09-23 07:47:00,55.2,42.4,30.01,SW,227,0.0,5.0,62,0.00,,,0.00,76.0,meteohub,2014-09-23 14:47:00,
2014-09-23 07:52:00,56.3,42.6,30.01,SW,227,0.0,5.0,60,0.00,,,0.00,102.0,meteohub,2014-09-23 14:52:00,
2014-09-23 07:57:00,56.8,43.2,30.01,SW,227,0.0,5.0,60,0.00,,,0.00,58.0,meteohub,2014-09-23 14:57:00,
2014-09-23 08:02:00,58.3,43.2,30.01,SW,227,0.0,5.0,57,0.00,,,0.00,127.0,meteohub,2014-09-23 15:02:00,
2014-09-23 08:08:00,59.2,43.0,30.02,SW,227,0.0,3.0,55,0.00,,,0.00,156.0,meteohub,2014-09-23 15:08:00,
2014-09-23 08:13:00,60.1,43.0,30.01,SW,227,0.0,0.0,53,0.00,,,0.00,162.0,meteohub,2014-09-23 15:13:00,
2014-09-23 08:18:00,61.0,44.2,30.01,SW,227,0.0,0.0,54,0.00,,,0.00,186.0,meteohub,2014-09-23 15:18:00,
2014-09-23 08:23:00,61.3,43.5,30.02,SW,227,0.0,0.0,52,0.00,,,0.00,207.0,meteohub,2014-09-23 15:23:00,
2014-09-23 08:28:00,61.5,44.2,30.02,SW,227,0.0,8.0,53,0.00,,,0.00,239.0,meteohub,2014-09-23 15:28:00,
2014-09-23 08:33:00,62.1,44.8,30.02,SW,227,0.0,8.0,53,0.00,,,0.00,262.0,meteohub,2014-09-23 15:33:00,
2014-09-23 08:38:00,62.4,44.1,30.01,SW,227,0.0,8.0,51,0.00,,,0.00,292.0,meteohub,2014-09-23 15:38:00,
2014-09-23 08:43:00,63.1,44.2,30.02,SW,227,0.0,6.0,50,0.00,,,0.00,313.0,meteohub,2014-09-23 15:43:00,
2014-09-23 08:48:00,63.9,44.8,30.02,SW,227,0.0,6.0,50,0.00,,,0.00,346.0,meteohub,2014-09-23 15:48:00,
2014-09-23 08:53:00,63.9,44.8,30.02,SW,227,6.0,6.0,50,0.00,,,0.00,367.0,meteohub,2014-09-23 15:53:00,
2014-09-23 08:58:00,63.9,44.2,30.02,SW,227,0.0,9.0,49,0.00,,,0.00,394.0,meteohub,2014-09-23 15:58:00,
2014-09-23 09:03:00,64.8,45.7,30.01,SW,227,0.0,9.0,50,0.00,,,0.00,418.0,meteohub,2014-09-23 16:03:00,
2014-09-23 09:08:00,65.5,44.8,30.01,SW,227,0.0,8.0,47,0.00,,,0.00,446.0,meteohub,2014-09-23 16:08:00,
2014-09-23 09:13:00,66.4,45.0,30.01,SW,227,0.0,6.0,46,0.00,,,0.00,455.0,meteohub,2014-09-23 16:13:00,
2014-09-23 09:18:00,66.6,44.6,30.01,SW,226,0.0,8.0,45,0.00,,,0.00,487.0,meteohub,2014-09-23 16:18:00,
2014-09-23 09:23:00,66.7,45.9,30.01,SW,226,0.0,8.0,47,0.00,,,0.00,515.0,meteohub,2014-09-23 16:23:00,
2014-09-23 09:28:00,66.9,45.5,30.01,SW,230,0.0,8.0,46,0.00,,,0.00,550.0,meteohub,2014-09-23 16:28:00,
2014-09-23 09:33:00,66.9,46.6,30.01,SW,230,5.0,8.0,48,0.00,,,0.00,554.0,meteohub,2014-09-23 16:33:00,
2014-09-23 09:38:00,67.5,46.0,30.01,SW,224,3.0,10.0,46,0.00,,,0.00,429.0,meteohub,2014-09-23 16:38:00,
2014-09-23 09:43:00,68.4,45.7,30.01,SW,228,0.0,10.0,44,0.00,,,0.00,483.0,meteohub,2014-09-23 16:43:00,
2014-09-23 09:48:00,68.7,45.9,30.01,SW,229,0.0,10.0,44,0.00,,,0.00,594.0,meteohub,2014-09-23 16:48:00,
2014-09-23 09:53:00,69.3,45.9,30.01,SW,231,0.0,9.0,43,0.00,,,0.00,508.0,meteohub,2014-09-23 16:53:00,
2014-09-23 09:58:00,70.5,46.4,30.01,SW,234,0.0,9.0,42,0.00,,,0.00,629.0,meteohub,2014-09-23 16:58:00,
2014-09-23 10:03:00,70.9,44.1,30.00,SW,234,6.0,11.0,38,0.00,,,0.00,506.0,meteohub,2014-09-23 17:03:00,
2014-09-23 10:08:00,70.5,44.4,30.00,SSW,193,6.0,11.0,39,0.00,,,0.00,429.0,meteohub,2014-09-23 17:08:00,
2014-09-23 10:13:00,70.2,46.0,30.00,East,86,11.0,11.0,42,0.00,,,0.00,290.0,meteohub,2014-09-23 17:13:00,
2014-09-23 10:18:00,69.4,43.3,30.00,ENE,61,3.0,11.0,39,0.00,,,0.00,517.0,meteohub,2014-09-23 17:18:00,
2014-09-23 10:23:00,70.0,43.9,30.00,ENE,61,0.0,11.0,39,0.00,,,0.00,339.0,meteohub,2014-09-23 17:23:00,
2014-09-23 10:28:00,69.8,43.0,30.00,ENE,61,0.0,11.0,38,0.00,,,0.00,332.0,meteohub,2014-09-23 17:28:00,
2014-09-23 10:33:00,70.3,45.5,30.00,ENE,61,0.0,9.0,41,0.00,,,0.00,383.0,meteohub,2014-09-23 17:33:00,
2014-09-23 10:38:00,70.3,45.0,30.00,ENE,59,0.0,7.0,40,0.00,,,0.00,274.0,meteohub,2014-09-23 17:38:00,
2014-09-23 10:43:00,70.2,45.3,30.00,ENE,59,0.0,8.0,41,0.00,,,0.00,585.0,meteohub,2014-09-23 17:43:00,
2014-09-23 10:48:00,70.9,44.1,29.99,ENE,59,0.0,8.0,38,0.00,,,0.00,499.0,meteohub,2014-09-23 17:48:00,
2014-09-23 10:53:00,71.8,45.5,29.99,NE,45,0.0,9.0,39,0.00,,,0.00,411.0,meteohub,2014-09-23 17:53:00,
2014-09-23 10:59:00,73.9,46.0,29.99,NE,40,0.0,9.0,37,0.00,,,0.00,766.0,meteohub,2014-09-23 17:59:00,
2014-09-23 11:04:00,74.1,43.2,29.99,NE,47,0.0,8.0,33,0.00,,,0.00,571.0,meteohub,2014-09-23 18:04:00,
2014-09-23 11:09:00,73.8,44.4,29.99,ENE,59,5.0,8.0,35,0.00,,,0.00,371.0,meteohub,2014-09-23 18:09:00,
2014-09-23 11:14:00,72.9,44.4,29.99,East,81,5.0,11.0,36,0.00,,,0.00,452.0,meteohub,2014-09-23 18:14:00,
2014-09-23 11:19:00,73.6,44.2,29.99,North,350,3.0,11.0,35,0.00,,,0.00,905.0,meteohub,2014-09-23 18:19:00,
2014-09-23 11:24:00,74.1,43.9,29.99,NE,54,0.0,11.0,34,0.00,,,0.00,895.0,meteohub,2014-09-23 18:24:00,
2014-09-23 11:29:00,73.9,43.9,29.98,NNW,345,5.0,11.0,34,0.00,,,0.00,728.0,meteohub,2014-09-23 18:29:00,
2014-09-23 11:34:00,74.8,37.6,29.98,SSW,204,5.0,11.0,26,0.00,,,0.00,708.0,meteohub,2014-09-23 18:34:00,
2014-09-23 11:39:00,75.6,42.8,29.97,ESE,105,7.0,11.0,31,0.00,,,0.00,334.0,meteohub,2014-09-23 18:39:00,
2014-09-23 11:44:00,75.0,38.8,29.97,ENE,66,8.0,11.0,27,0.00,,,0.00,480.0,meteohub,2014-09-23 18:44:00,
2014-09-23 11:49:00,75.7,44.6,29.97,East,80,9.0,13.0,33,0.00,,,0.00,541.0,meteohub,2014-09-23 18:49:00,
2014-09-23 11:54:00,76.1,42.4,29.96,ESE,103,7.0,13.0,30,0.00,,,0.00,912.0,meteohub,2014-09-23 18:54:00,
2014-09-23 11:59:00,76.6,43.7,29.96,North,5,3.0,24.0,31,0.00,,,0.00,912.0,meteohub,2014-09-23 18:59:00,
2014-09-23 12:04:00,75.9,41.4,29.96,NNE,32,5.0,24.0,29,0.00,,,0.00,483.0,meteohub,2014-09-23 19:04:00,
2014-09-23 12:09:00,77.4,42.6,29.96,North,355,3.0,24.0,29,0.00,,,0.00,925.0,meteohub,2014-09-23 19:09:00,
2014-09-23 12:14:00,78.3,38.5,29.97,North,9,3.0,13.0,24,0.00,,,0.00,935.0,meteohub,2014-09-23 19:14:00,
2014-09-23 12:19:00,80.2,40.1,29.96,SSE,154,11.0,13.0,24,0.00,,,0.00,916.0,meteohub,2014-09-23 19:19:00,
2014-09-23 12:24:00,80.8,40.6,29.96,NW,312,12.0,13.0,24,0.00,,,0.00,870.0,meteohub,2014-09-23 19:24:00,
2014-09-23 12:29:00,79.5,38.5,29.96,WNW,301,5.0,24.0,23,0.00,,,0.00,851.0,meteohub,2014-09-23 19:29:00,
2014-09-23 12:34:00,79.5,37.4,29.96,WNW,285,6.0,24.0,22,0.00,,,0.00,851.0,meteohub,2014-09-23 19:34:00,
2014-09-23 12:39:00,79.9,41.0,29.96,NNW,327,0.0,24.0,25,0.00,,,0.00,854.0,meteohub,2014-09-23 19:39:00,
2014-09-23 12:44:00,80.2,37.9,29.96,ENE,77,9.0,13.0,22,0.00,,,0.00,854.0,meteohub,2014-09-23 19:44:00,
2014-09-23 12:49:00,80.4,39.2,29.96,ENE,67,15.0,15.0,23,0.00,,,0.00,851.0,meteohub,2014-09-23 19:49:00,
2014-09-23 12:54:00,81.3,39.9,29.94,NW,308,11.0,16.0,23,0.00,,,0.00,851.0,meteohub,2014-09-23 19:54:00,
2014-09-23 12:59:00,82.6,34.7,29.95,NW,319,3.0,16.0,18,0.00,,,0.00,872.0,meteohub,2014-09-23 19:59:00,
2014-09-23 13:04:00,82.0,35.8,29.95,NNW,330,7.0,16.0,19,0.00,,,0.00,874.0,meteohub,2014-09-23 20:04:00,
2014-09-23 13:09:00,81.7,35.4,29.94,NW,315,13.0,16.0,19,0.00,,,0.00,877.0,meteohub,2014-09-23 20:09:00,
2014-09-23 13:14:00,82.9,33.6,29.95,SE,132,9.0,15.0,17,0.00,,,0.00,904.0,meteohub,2014-09-23 20:14:00,
2014-09-23 13:19:00,84.6,31.8,29.95,South,178,15.0,16.0,15,0.00,,,0.00,928.0,meteohub,2014-09-23 20:19:00,
2014-09-23 13:24:00,85.3,30.7,29.94,WSW,239,12.0,20.0,14,0.00,,,0.00,578.0,meteohub,2014-09-23 20:24:00,
2014-09-23 13:29:00,83.8,31.3,29.94,SSE,162,8.0,23.0,15,0.00,,,0.00,322.0,meteohub,2014-09-23 20:29:00,
2014-09-23 13:34:00,83.7,32.7,29.94,SSW,211,14.0,23.0,16,0.00,,,0.00,904.0,meteohub,2014-09-23 20:34:00,
2014-09-23 13:39:00,85.1,33.8,29.94,SSW,200,19.0,23.0,16,0.00,,,0.00,881.0,meteohub,2014-09-23 20:39:00,
2014-09-23 13:44:00,85.5,32.5,29.94,SSW,192,14.0,24.0,15,0.00,,,0.00,858.0,meteohub,2014-09-23 20:44:00,
2014-09-23 13:49:00,85.5,34.2,29.94,South,169,11.0,24.0,16,0.00,,,0.00,842.0,meteohub,2014-09-23 20:49:00,
2014-09-23 13:54:00,85.5,32.5,29.93,SSE,161,13.0,24.0,15,0.00,,,0.00,831.0,meteohub,2014-09-23 20:54:00,
2014-09-23 13:59:00,85.5,34.2,29.93,SSW,207,15.0,21.0,16,0.00,,,0.00,824.0,meteohub,2014-09-23 20:59:00,
2014-09-23 14:04:00,85.6,34.3,29.93,South,188,13.0,23.0,16,0.00,,,0.00,817.0,meteohub,2014-09-23 21:04:00,
2014-09-23 14:09:00,85.5,34.2,29.93,SSW,202,8.0,23.0,16,0.00,,,0.00,812.0,meteohub,2014-09-23 21:09:00,
2014-09-23 14:14:00,85.8,34.5,29.93,SSW,200,11.0,23.0,16,0.00,,,0.00,803.0,meteohub,2014-09-23 21:14:00,
2014-09-23 14:19:00,85.5,35.6,29.93,South,182,24.0,24.0,17,0.00,,,0.00,800.0,meteohub,2014-09-23 21:19:00,
2014-09-23 14:24:00,85.1,35.4,29.93,South,175,12.0,24.0,17,0.00,,,0.00,780.0,meteohub,2014-09-23 21:24:00,
2014-09-23 14:29:00,84.6,34.9,29.93,South,171,12.0,24.0,17,0.00,,,0.00,773.0,meteohub,2014-09-23 21:29:00,
2014-09-23 14:34:00,85.1,35.4,29.93,SSW,195,13.0,24.0,17,0.00,,,0.00,766.0,meteohub,2014-09-23 21:34:00,
2014-09-23 14:39:00,86.2,34.7,29.93,SSW,197,13.0,24.0,16,0.00,,,0.00,744.0,meteohub,2014-09-23 21:39:00,
2014-09-23 14:45:00,85.6,34.3,29.93,WSW,244,13.0,24.0,16,0.00,,,0.00,747.0,meteohub,2014-09-23 21:45:00,
2014-09-23 14:50:00,85.8,34.5,29.93,SSW,194,14.0,24.0,16,0.00,,,0.00,721.0,meteohub,2014-09-23 21:50:00,
2014-09-23 14:55:00,85.3,35.6,29.92,SW,215,14.0,24.0,17,0.00,,,0.00,714.0,meteohub,2014-09-23 21:55:00,
2014-09-23 15:00:00,85.3,35.6,29.92,SSW,199,9.0,23.0,17,0.00,,,0.00,643.0,meteohub,2014-09-23 22:00:00,
2014-09-23 15:04:00,84.9,38.1,29.92,South,191,13.0,23.0,19,0.00,,,0.00,707.0,meteohub,2014-09-23 22:04:00,
2014-09-23 15:10:00,84.7,37.9,29.92,SSW,192,11.0,23.0,19,0.00,,,0.00,675.0,meteohub,2014-09-23 22:10:00,
2014-09-23 15:15:00,84.7,37.9,29.92,SSE,163,9.0,23.0,19,0.00,,,0.00,668.0,meteohub,2014-09-23 22:15:00,
2014-09-23 15:20:00,84.9,38.1,29.92,SSE,148,11.0,23.0,19,0.00,,,0.00,673.0,meteohub,2014-09-23 22:20:00,
2014-09-23 15:25:00,85.1,36.9,29.91,South,187,12.0,20.0,18,0.00,,,0.00,661.0,meteohub,2014-09-23 22:25:00,
2014-09-23 15:30:00,85.1,38.1,29.91,SSW,197,9.0,20.0,19,0.00,,,0.00,649.0,meteohub,2014-09-23 22:30:00,
2014-09-23 15:35:00,84.7,36.5,29.91,SW,223,13.0,20.0,18,0.00,,,0.00,605.0,meteohub,2014-09-23 22:35:00,
2014-09-23 15:40:00,84.6,37.8,29.91,South,170,13.0,19.0,19,0.00,,,0.00,476.0,meteohub,2014-09-23 22:40:00,
2014-09-23 15:45:00,84.0,37.4,29.91,South,190,10.0,21.0,19,0.00,,,0.00,517.0,meteohub,2014-09-23 22:45:00,
2014-09-23 15:50:00,84.4,39.0,29.90,SSW,213,12.0,21.0,20,0.00,,,0.00,563.0,meteohub,2014-09-23 22:50:00,
2014-09-23 15:55:00,84.6,37.8,29.90,South,184,9.0,21.0,19,0.00,,,0.00,489.0,meteohub,2014-09-23 22:55:00,
2014-09-23 16:00:00,84.0,36.0,29.90,SSW,211,10.0,21.0,18,0.00,,,0.00,570.0,meteohub,2014-09-23 23:00:00,
2014-09-23 16:05:00,85.3,38.3,29.90,SSE,163,8.0,20.0,19,0.00,,,0.00,571.0,meteohub,2014-09-23 23:05:00,
2014-09-23 16:10:00,84.9,36.7,29.90,SSW,192,11.0,20.0,18,0.00,,,0.00,527.0,meteohub,2014-09-23 23:10:00,
2014-09-23 16:15:00,84.4,37.6,29.89,SSW,213,16.0,20.0,19,0.00,,,0.00,534.0,meteohub,2014-09-23 23:15:00,
2014-09-23 16:20:00,84.2,36.1,29.90,SSW,202,12.0,23.0,18,0.00,,,0.00,512.0,meteohub,2014-09-23 23:20:00,
2014-09-23 16:25:00,83.7,38.3,29.89,SW,232,11.0,23.0,20,0.00,,,0.00,487.0,meteohub,2014-09-23 23:25:00,
2014-09-23 16:30:00,84.4,39.0,29.89,SSW,196,14.0,23.0,20,0.00,,,0.00,427.0,meteohub,2014-09-23 23:30:00,
2014-09-23 16:35:00,83.5,35.6,29.89,SW,218,16.0,24.0,18,0.00,,,0.00,332.0,meteohub,2014-09-23 23:35:00,